sensor_id;sensor_type;location;lat;lon;timestamp;P1;durP1;ratioP1;P2;durP2;ratioP2
41663;SDS011;27353;50.906;7.248;2022-11-20T00:00:52;22.05;;;19.90;;
41663;SDS011;27353;50.906;7.248;2022-11-20T00:03:18;21.90;;;18.45;;
41663;SDS011;27353;50.906;7.248;2022-11-20T00:05:44;19.55;;;16.90;;
41663;SDS011;27353;50.906;7.248;2022-11-20T00:08:10;21.17;;;19.23;;
41663;SDS011;27353;50.906;7.248;2022-11-20T00:10:36;21.58;;;16.73;;
41663;SDS011;27353;50.906;7.248;2022-11-20T00:13:02;16.90;;;15.00;;
41663;SDS011;27353;50.906;7.248;2022-11-20T00:15:28;24.40;;;19.15;;
41663;SDS011;27353;50.906;7.248;2022-11-20T00:17:54;20.20;;;18.20;;
41663;SDS011;27353;50.906;7.248;2022-11-20T00:20:20;22.98;;;17.15;;
41663;SDS011;27353;50.906;7.248;2022-11-20T00:22:46;18.73;;;16.25;;
41663;SDS011;27353;50.906;7.248;2022-11-20T00:25:14;18.42;;;16.50;;
41663;SDS011;27353;50.906;7.248;2022-11-20T00:27:40;21.40;;;16.83;;
41663;SDS011;27353;50.906;7.248;2022-11-20T00:30:06;23.05;;;19.83;;
41663;SDS011;27353;50.906;7.248;2022-11-20T00:32:32;19.83;;;17.73;;
41663;SDS011;27353;50.906;7.248;2022-11-20T00:34:58;21.08;;;18.52;;
41663;SDS011;27353;50.906;7.248;2022-11-20T00:37:23;18.55;;;16.40;;
41663;SDS011;27353;50.906;7.248;2022-11-20T00:39:49;23.35;;;17.30;;
41663;SDS011;27353;50.906;7.248;2022-11-20T00:42:15;19.92;;;16.85;;
41663;SDS011;27353;50.906;7.248;2022-11-20T00:44:40;18.90;;;16.92;;
41663;SDS011;27353;50.906;7.248;2022-11-20T00:47:06;18.98;;;16.50;;
41663;SDS011;27353;50.906;7.248;2022-11-20T00:49:32;19.35;;;17.13;;
41663;SDS011;27353;50.906;7.248;2022-11-20T00:51:58;20.83;;;17.95;;
41663;SDS011;27353;50.906;7.248;2022-11-20T00:54:23;21.02;;;17.38;;
41663;SDS011;27353;50.906;7.248;2022-11-20T00:56:49;20.63;;;16.80;;
41663;SDS011;27353;50.906;7.248;2022-11-20T00:59:14;24.65;;;17.13;;
41663;SDS011;27353;50.906;7.248;2022-11-20T01:01:40;20.00;;;16.27;;
41663;SDS011;27353;50.906;7.248;2022-11-20T01:04:06;21.02;;;16.83;;
41663;SDS011;27353;50.906;7.248;2022-11-20T01:06:33;20.05;;;18.00;;
41663;SDS011;27353;50.906;7.248;2022-11-20T01:09:01;23.55;;;18.35;;
41663;SDS011;27353;50.906;7.248;2022-11-20T01:11:30;21.23;;;16.75;;
41663;SDS011;27353;50.906;7.248;2022-11-20T01:13:58;18.85;;;16.85;;
41663;SDS011;27353;50.906;7.248;2022-11-20T01:16:29;21.10;;;18.92;;
41663;SDS011;27353;50.906;7.248;2022-11-20T01:19:00;20.92;;;18.30;;
41663;SDS011;27353;50.906;7.248;2022-11-20T01:21:28;19.83;;;15.45;;
41663;SDS011;27353;50.906;7.248;2022-11-20T01:23:56;20.23;;;16.98;;
41663;SDS011;27353;50.906;7.248;2022-11-20T01:26:23;18.95;;;16.80;;
41663;SDS011;27353;50.906;7.248;2022-11-20T01:28:51;19.88;;;17.38;;
41663;SDS011;27353;50.906;7.248;2022-11-20T01:33:49;21.50;;;17.17;;
41663;SDS011;27353;50.906;7.248;2022-11-20T01:36:17;18.55;;;16.75;;
41663;SDS011;27353;50.906;7.248;2022-11-20T01:38:43;19.05;;;17.05;;
41663;SDS011;27353;50.906;7.248;2022-11-20T01:41:15;21.50;;;16.75;;
41663;SDS011;27353;50.906;7.248;2022-11-20T01:44:00;18.00;;;16.10;;
41663;SDS011;27353;50.906;7.248;2022-11-20T01:46:26;23.17;;;18.77;;
41663;SDS011;27353;50.906;7.248;2022-11-20T01:49:08;19.90;;;17.02;;
41663;SDS011;27353;50.906;7.248;2022-11-20T01:51:53;23.95;;;18.40;;
41663;SDS011;27353;50.906;7.248;2022-11-20T01:54:38;21.42;;;18.77;;
41663;SDS011;27353;50.906;7.248;2022-11-20T01:57:13;20.77;;;17.15;;
41663;SDS011;27353;50.906;7.248;2022-11-20T01:59:43;24.58;;;18.17;;
41663;SDS011;27353;50.906;7.248;2022-11-20T02:02:25;18.50;;;16.88;;
41663;SDS011;27353;50.906;7.248;2022-11-20T02:04:51;23.48;;;15.68;;
41663;SDS011;27353;50.906;7.248;2022-11-20T02:07:20;19.48;;;17.42;;
41663;SDS011;27353;50.906;7.248;2022-11-20T02:09:48;19.80;;;17.80;;
41663;SDS011;27353;50.906;7.248;2022-11-20T02:12:14;20.85;;;18.42;;
41663;SDS011;27353;50.906;7.248;2022-11-20T02:14:58;20.45;;;18.13;;
41663;SDS011;27353;50.906;7.248;2022-11-20T02:17:24;24.05;;;20.00;;
41663;SDS011;27353;50.906;7.248;2022-11-20T02:19:50;18.70;;;16.88;;
41663;SDS011;27353;50.906;7.248;2022-11-20T02:22:21;21.88;;;17.40;;
41663;SDS011;27353;50.906;7.248;2022-11-20T02:24:59;19.30;;;17.13;;
41663;SDS011;27353;50.906;7.248;2022-11-20T02:27:27;22.35;;;16.38;;
41663;SDS011;27353;50.906;7.248;2022-11-20T02:29:57;20.60;;;17.02;;
41663;SDS011;27353;50.906;7.248;2022-11-20T02:34:57;27.33;;;17.55;;
41663;SDS011;27353;50.906;7.248;2022-11-20T02:37:26;19.52;;;16.42;;
41663;SDS011;27353;50.906;7.248;2022-11-20T02:39:56;22.67;;;17.13;;
41663;SDS011;27353;50.906;7.248;2022-11-20T02:42:21;21.00;;;17.67;;
41663;SDS011;27353;50.906;7.248;2022-11-20T02:44:47;24.85;;;18.65;;
41663;SDS011;27353;50.906;7.248;2022-11-20T02:47:13;22.13;;;18.13;;
41663;SDS011;27353;50.906;7.248;2022-11-20T02:49:38;20.70;;;16.10;;
41663;SDS011;27353;50.906;7.248;2022-11-20T02:52:04;20.38;;;17.13;;
41663;SDS011;27353;50.906;7.248;2022-11-20T02:54:29;18.73;;;16.75;;
41663;SDS011;27353;50.906;7.248;2022-11-20T02:56:55;22.15;;;18.70;;
41663;SDS011;27353;50.906;7.248;2022-11-20T02:59:21;21.42;;;18.17;;
41663;SDS011;27353;50.906;7.248;2022-11-20T03:01:47;23.55;;;19.38;;
41663;SDS011;27353;50.906;7.248;2022-11-20T03:04:13;21.10;;;15.98;;
41663;SDS011;27353;50.906;7.248;2022-11-20T03:06:38;21.98;;;19.00;;
41663;SDS011;27353;50.906;7.248;2022-11-20T03:09:04;22.98;;;18.60;;
41663;SDS011;27353;50.906;7.248;2022-11-20T03:11:30;19.27;;;17.35;;
41663;SDS011;27353;50.906;7.248;2022-11-20T03:13:56;22.55;;;16.95;;
41663;SDS011;27353;50.906;7.248;2022-11-20T03:16:22;25.10;;;18.75;;
41663;SDS011;27353;50.906;7.248;2022-11-20T03:18:48;22.92;;;17.75;;
41663;SDS011;27353;50.906;7.248;2022-11-20T03:21:16;22.50;;;18.20;;
41663;SDS011;27353;50.906;7.248;2022-11-20T03:23:42;21.85;;;18.20;;
41663;SDS011;27353;50.906;7.248;2022-11-20T03:26:09;21.38;;;18.38;;
41663;SDS011;27353;50.906;7.248;2022-11-20T03:28:38;22.88;;;19.58;;
41663;SDS011;27353;50.906;7.248;2022-11-20T03:31:05;19.73;;;17.05;;
41663;SDS011;27353;50.906;7.248;2022-11-20T03:33:35;19.58;;;16.63;;
41663;SDS011;27353;50.906;7.248;2022-11-20T03:36:04;23.88;;;17.02;;
41663;SDS011;27353;50.906;7.248;2022-11-20T03:38:33;28.13;;;20.85;;
41663;SDS011;27353;50.906;7.248;2022-11-20T03:41:00;22.17;;;16.70;;
41663;SDS011;27353;50.906;7.248;2022-11-20T03:43:26;22.60;;;17.80;;
41663;SDS011;27353;50.906;7.248;2022-11-20T03:45:52;22.75;;;18.77;;
41663;SDS011;27353;50.906;7.248;2022-11-20T03:48:18;23.67;;;18.35;;
41663;SDS011;27353;50.906;7.248;2022-11-20T03:50:44;27.33;;;19.75;;
41663;SDS011;27353;50.906;7.248;2022-11-20T03:53:12;25.35;;;17.73;;
41663;SDS011;27353;50.906;7.248;2022-11-20T03:55:41;21.15;;;17.48;;
41663;SDS011;27353;50.906;7.248;2022-11-20T03:58:07;23.10;;;19.17;;
41663;SDS011;27353;50.906;7.248;2022-11-20T04:00:33;21.08;;;18.52;;
41663;SDS011;27353;50.906;7.248;2022-11-20T04:03:00;26.15;;;16.55;;
41663;SDS011;27353;50.906;7.248;2022-11-20T04:05:26;20.23;;;17.70;;
41663;SDS011;27353;50.906;7.248;2022-11-20T04:07:52;30.08;;;18.67;;
41663;SDS011;27353;50.906;7.248;2022-11-20T04:10:17;21.95;;;19.70;;
41663;SDS011;27353;50.906;7.248;2022-11-20T04:12:43;25.02;;;18.42;;
41663;SDS011;27353;50.906;7.248;2022-11-20T04:15:09;25.05;;;16.67;;
41663;SDS011;27353;50.906;7.248;2022-11-20T04:17:34;26.90;;;18.85;;
41663;SDS011;27353;50.906;7.248;2022-11-20T04:20:00;24.02;;;19.15;;
41663;SDS011;27353;50.906;7.248;2022-11-20T04:22:26;23.88;;;17.77;;
41663;SDS011;27353;50.906;7.248;2022-11-20T04:24:52;31.05;;;20.25;;
41663;SDS011;27353;50.906;7.248;2022-11-20T04:27:18;25.42;;;18.75;;
41663;SDS011;27353;50.906;7.248;2022-11-20T04:29:43;26.15;;;17.05;;
41663;SDS011;27353;50.906;7.248;2022-11-20T04:32:09;18.35;;;16.33;;
41663;SDS011;27353;50.906;7.248;2022-11-20T04:34:35;23.35;;;19.25;;
41663;SDS011;27353;50.906;7.248;2022-11-20T04:37:00;21.45;;;16.45;;
41663;SDS011;27353;50.906;7.248;2022-11-20T04:39:26;20.65;;;16.00;;
41663;SDS011;27353;50.906;7.248;2022-11-20T04:41:52;23.45;;;16.42;;
41663;SDS011;27353;50.906;7.248;2022-11-20T04:44:37;23.80;;;19.48;;
41663;SDS011;27353;50.906;7.248;2022-11-20T04:47:03;20.98;;;17.92;;
41663;SDS011;27353;50.906;7.248;2022-11-20T04:49:29;22.25;;;18.15;;
41663;SDS011;27353;50.906;7.248;2022-11-20T04:51:56;22.13;;;18.15;;
41663;SDS011;27353;50.906;7.248;2022-11-20T04:54:22;18.92;;;15.65;;
41663;SDS011;27353;50.906;7.248;2022-11-20T04:56:48;25.80;;;17.92;;
41663;SDS011;27353;50.906;7.248;2022-11-20T04:59:14;21.92;;;17.45;;
41663;SDS011;27353;50.906;7.248;2022-11-20T05:01:40;22.15;;;17.58;;
41663;SDS011;27353;50.906;7.248;2022-11-20T05:04:06;20.38;;;18.13;;
41663;SDS011;27353;50.906;7.248;2022-11-20T05:06:32;18.40;;;16.00;;
41663;SDS011;27353;50.906;7.248;2022-11-20T05:08:58;21.05;;;16.50;;
41663;SDS011;27353;50.906;7.248;2022-11-20T05:11:23;25.60;;;19.63;;
41663;SDS011;27353;50.906;7.248;2022-11-20T05:13:50;23.10;;;18.95;;
41663;SDS011;27353;50.906;7.248;2022-11-20T05:16:23;21.85;;;16.75;;
41663;SDS011;27353;50.906;7.248;2022-11-20T05:18:49;24.13;;;17.52;;
41663;SDS011;27353;50.906;7.248;2022-11-20T05:21:16;23.55;;;18.83;;
41663;SDS011;27353;50.906;7.248;2022-11-20T05:23:43;24.40;;;18.88;;
41663;SDS011;27353;50.906;7.248;2022-11-20T05:26:13;24.85;;;18.02;;
41663;SDS011;27353;50.906;7.248;2022-11-20T05:28:41;23.05;;;17.77;;
41663;SDS011;27353;50.906;7.248;2022-11-20T05:31:11;24.13;;;17.10;;
41663;SDS011;27353;50.906;7.248;2022-11-20T05:36:07;19.40;;;15.93;;
41663;SDS011;27353;50.906;7.248;2022-11-20T05:38:34;25.10;;;16.08;;
41663;SDS011;27353;50.906;7.248;2022-11-20T05:41:10;21.17;;;17.13;;
41663;SDS011;27353;50.906;7.248;2022-11-20T05:43:38;28.65;;;18.90;;
41663;SDS011;27353;50.906;7.248;2022-11-20T05:46:05;22.98;;;16.58;;
41663;SDS011;27353;50.906;7.248;2022-11-20T05:48:33;20.17;;;17.45;;
41663;SDS011;27353;50.906;7.248;2022-11-20T05:51:00;25.20;;;19.73;;
41663;SDS011;27353;50.906;7.248;2022-11-20T05:53:27;23.58;;;17.38;;
41663;SDS011;27353;50.906;7.248;2022-11-20T05:56:35;22.08;;;17.73;;
41663;SDS011;27353;50.906;7.248;2022-11-20T05:58:43;19.20;;;14.93;;
41663;SDS011;27353;50.906;7.248;2022-11-20T06:01:10;22.45;;;20.05;;
41663;SDS011;27353;50.906;7.248;2022-11-20T06:03:40;24.52;;;20.38;;
41663;SDS011;27353;50.906;7.248;2022-11-20T06:06:08;27.92;;;19.10;;
41663;SDS011;27353;50.906;7.248;2022-11-20T06:08:34;21.40;;;19.15;;
41663;SDS011;27353;50.906;7.248;2022-11-20T06:11:06;21.60;;;17.08;;
41663;SDS011;27353;50.906;7.248;2022-11-20T06:13:34;26.08;;;17.98;;
41663;SDS011;27353;50.906;7.248;2022-11-20T06:16:00;28.17;;;18.77;;
41663;SDS011;27353;50.906;7.248;2022-11-20T06:18:29;21.77;;;16.95;;
41663;SDS011;27353;50.906;7.248;2022-11-20T06:21:06;25.33;;;18.98;;
41663;SDS011;27353;50.906;7.248;2022-11-20T06:23:40;26.48;;;19.30;;
41663;SDS011;27353;50.906;7.248;2022-11-20T06:26:06;25.50;;;18.55;;
41663;SDS011;27353;50.906;7.248;2022-11-20T06:28:33;27.13;;;19.67;;
41663;SDS011;27353;50.906;7.248;2022-11-20T06:31:02;28.58;;;20.83;;
41663;SDS011;27353;50.906;7.248;2022-11-20T06:33:29;43.65;;;28.88;;
41663;SDS011;27353;50.906;7.248;2022-11-20T06:35:58;35.25;;;25.98;;
41663;SDS011;27353;50.906;7.248;2022-11-20T06:38:25;27.38;;;20.25;;
41663;SDS011;27353;50.906;7.248;2022-11-20T06:40:51;31.77;;;24.30;;
41663;SDS011;27353;50.906;7.248;2022-11-20T06:43:17;33.65;;;21.35;;
41663;SDS011;27353;50.906;7.248;2022-11-20T06:45:43;29.25;;;20.00;;
41663;SDS011;27353;50.906;7.248;2022-11-20T06:48:09;23.85;;;17.95;;
41663;SDS011;27353;50.906;7.248;2022-11-20T06:50:37;20.10;;;17.05;;
41663;SDS011;27353;50.906;7.248;2022-11-20T06:53:04;23.92;;;18.23;;
41663;SDS011;27353;50.906;7.248;2022-11-20T06:55:30;26.65;;;20.58;;
41663;SDS011;27353;50.906;7.248;2022-11-20T06:57:56;20.20;;;16.38;;
41663;SDS011;27353;50.906;7.248;2022-11-20T07:00:22;26.50;;;18.70;;
41663;SDS011;27353;50.906;7.248;2022-11-20T07:02:48;24.58;;;18.52;;
41663;SDS011;27353;50.906;7.248;2022-11-20T07:05:13;21.33;;;17.20;;
41663;SDS011;27353;50.906;7.248;2022-11-20T07:07:39;30.55;;;22.13;;
41663;SDS011;27353;50.906;7.248;2022-11-20T07:10:05;25.08;;;18.08;;
41663;SDS011;27353;50.906;7.248;2022-11-20T07:12:31;25.13;;;19.75;;
41663;SDS011;27353;50.906;7.248;2022-11-20T07:14:56;26.33;;;19.90;;
41663;SDS011;27353;50.906;7.248;2022-11-20T07:17:22;30.73;;;19.90;;
41663;SDS011;27353;50.906;7.248;2022-11-20T07:19:47;24.02;;;17.02;;
41663;SDS011;27353;50.906;7.248;2022-11-20T07:22:13;22.50;;;16.50;;
41663;SDS011;27353;50.906;7.248;2022-11-20T07:24:39;27.17;;;20.35;;
41663;SDS011;27353;50.906;7.248;2022-11-20T07:27:04;24.33;;;19.23;;
41663;SDS011;27353;50.906;7.248;2022-11-20T07:29:33;29.45;;;18.65;;
41663;SDS011;27353;50.906;7.248;2022-11-20T07:31:58;31.80;;;19.80;;
41663;SDS011;27353;50.906;7.248;2022-11-20T07:34:24;29.95;;;20.08;;
41663;SDS011;27353;50.906;7.248;2022-11-20T07:36:50;23.65;;;18.98;;
41663;SDS011;27353;50.906;7.248;2022-11-20T07:39:15;31.35;;;17.27;;
41663;SDS011;27353;50.906;7.248;2022-11-20T07:41:41;28.73;;;20.02;;
41663;SDS011;27353;50.906;7.248;2022-11-20T07:44:06;34.28;;;24.88;;
41663;SDS011;27353;50.906;7.248;2022-11-20T07:46:32;26.88;;;20.02;;
41663;SDS011;27353;50.906;7.248;2022-11-20T07:48:58;32.50;;;21.67;;
41663;SDS011;27353;50.906;7.248;2022-11-20T07:51:23;27.15;;;18.67;;
41663;SDS011;27353;50.906;7.248;2022-11-20T07:53:51;28.17;;;19.60;;
41663;SDS011;27353;50.906;7.248;2022-11-20T07:56:18;29.27;;;20.05;;
41663;SDS011;27353;50.906;7.248;2022-11-20T07:58:43;24.30;;;19.58;;
41663;SDS011;27353;50.906;7.248;2022-11-20T08:01:09;27.90;;;20.05;;
41663;SDS011;27353;50.906;7.248;2022-11-20T08:03:35;24.40;;;18.27;;
41663;SDS011;27353;50.906;7.248;2022-11-20T08:06:04;25.77;;;19.48;;
41663;SDS011;27353;50.906;7.248;2022-11-20T08:08:30;29.35;;;20.52;;
41663;SDS011;27353;50.906;7.248;2022-11-20T08:10:57;26.42;;;17.25;;
41663;SDS011;27353;50.906;7.248;2022-11-20T08:13:42;26.02;;;19.40;;
41663;SDS011;27353;50.906;7.248;2022-11-20T08:16:27;24.55;;;19.10;;
41663;SDS011;27353;50.906;7.248;2022-11-20T08:18:53;32.95;;;21.98;;
41663;SDS011;27353;50.906;7.248;2022-11-20T08:21:19;30.45;;;20.67;;
41663;SDS011;27353;50.906;7.248;2022-11-20T08:23:44;27.83;;;20.70;;
41663;SDS011;27353;50.906;7.248;2022-11-20T08:26:10;29.85;;;22.80;;
41663;SDS011;27353;50.906;7.248;2022-11-20T08:28:36;35.85;;;23.00;;
41663;SDS011;27353;50.906;7.248;2022-11-20T08:31:02;25.73;;;20.52;;
41663;SDS011;27353;50.906;7.248;2022-11-20T08:33:29;24.40;;;19.17;;
41663;SDS011;27353;50.906;7.248;2022-11-20T08:35:59;30.48;;;21.58;;
41663;SDS011;27353;50.906;7.248;2022-11-20T08:38:25;28.33;;;19.55;;
41663;SDS011;27353;50.906;7.248;2022-11-20T08:40:51;23.10;;;17.35;;
41663;SDS011;27353;50.906;7.248;2022-11-20T08:43:35;27.00;;;18.02;;
41663;SDS011;27353;50.906;7.248;2022-11-20T08:46:01;30.55;;;19.95;;
41663;SDS011;27353;50.906;7.248;2022-11-20T08:48:26;24.30;;;18.25;;
41663;SDS011;27353;50.906;7.248;2022-11-20T08:50:52;30.13;;;18.75;;
41663;SDS011;27353;50.906;7.248;2022-11-20T08:53:18;28.90;;;19.98;;
41663;SDS011;27353;50.906;7.248;2022-11-20T08:55:43;24.73;;;19.70;;
41663;SDS011;27353;50.906;7.248;2022-11-20T08:58:09;27.23;;;19.60;;
41663;SDS011;27353;50.906;7.248;2022-11-20T09:00:34;26.00;;;21.08;;
41663;SDS011;27353;50.906;7.248;2022-11-20T09:03:00;28.45;;;21.63;;
41663;SDS011;27353;50.906;7.248;2022-11-20T09:05:26;27.83;;;19.38;;
41663;SDS011;27353;50.906;7.248;2022-11-20T09:07:55;41.30;;;28.25;;
41663;SDS011;27353;50.906;7.248;2022-11-20T09:10:25;67.28;;;50.42;;
41663;SDS011;27353;50.906;7.248;2022-11-20T09:12:51;36.75;;;26.23;;
41663;SDS011;27353;50.906;7.248;2022-11-20T09:15:18;35.25;;;22.17;;
41663;SDS011;27353;50.906;7.248;2022-11-20T09:17:56;27.13;;;22.25;;
41663;SDS011;27353;50.906;7.248;2022-11-20T09:20:23;30.98;;;20.42;;
41663;SDS011;27353;50.906;7.248;2022-11-20T09:22:49;32.50;;;21.80;;
41663;SDS011;27353;50.906;7.248;2022-11-20T09:25:15;24.75;;;20.25;;
41663;SDS011;27353;50.906;7.248;2022-11-20T09:27:41;30.23;;;21.73;;
41663;SDS011;27353;50.906;7.248;2022-11-20T09:30:09;32.13;;;21.88;;
41663;SDS011;27353;50.906;7.248;2022-11-20T09:32:35;28.60;;;21.60;;
41663;SDS011;27353;50.906;7.248;2022-11-20T09:35:01;26.75;;;19.08;;
41663;SDS011;27353;50.906;7.248;2022-11-20T09:37:27;29.23;;;21.05;;
41663;SDS011;27353;50.906;7.248;2022-11-20T09:39:52;31.10;;;21.27;;
41663;SDS011;27353;50.906;7.248;2022-11-20T09:42:51;28.70;;;22.08;;
41663;SDS011;27353;50.906;7.248;2022-11-20T09:55:29;23.95;;;21.33;;
41663;SDS011;27353;50.906;7.248;2022-11-20T09:57:55;29.55;;;22.20;;
41663;SDS011;27353;50.906;7.248;2022-11-20T10:00:22;27.55;;;22.60;;
41663;SDS011;27353;50.906;7.248;2022-11-20T10:03:06;26.25;;;22.83;;
41663;SDS011;27353;50.906;7.248;2022-11-20T10:05:47;27.63;;;22.60;;
41663;SDS011;27353;50.906;7.248;2022-11-20T10:08:21;23.17;;;19.38;;
41663;SDS011;27353;50.906;7.248;2022-11-20T10:10:52;20.52;;;18.30;;
41663;SDS011;27353;50.906;7.248;2022-11-20T10:13:46;25.88;;;21.58;;
41663;SDS011;27353;50.906;7.248;2022-11-20T10:22:49;25.83;;;21.75;;
41663;SDS011;27353;50.906;7.248;2022-11-20T10:31:26;22.73;;;20.37;;
41663;SDS011;27353;50.906;7.248;2022-11-20T10:33:55;24.35;;;20.27;;
41663;SDS011;27353;50.906;7.248;2022-11-20T10:36:26;20.63;;;18.42;;
41663;SDS011;27353;50.906;7.248;2022-11-20T10:38:59;24.38;;;20.13;;
41663;SDS011;27353;50.906;7.248;2022-11-20T10:41:32;26.63;;;20.58;;
41663;SDS011;27353;50.906;7.248;2022-11-20T10:44:09;28.08;;;21.85;;
41663;SDS011;27353;50.906;7.248;2022-11-20T10:46:40;27.40;;;22.35;;
41663;SDS011;27353;50.906;7.248;2022-11-20T10:49:13;27.80;;;22.95;;
41663;SDS011;27353;50.906;7.248;2022-11-20T10:51:46;27.45;;;22.77;;
41663;SDS011;27353;50.906;7.248;2022-11-20T10:57:12;47.33;;;31.83;;
41663;SDS011;27353;50.906;7.248;2022-11-20T11:00:01;38.08;;;25.23;;
41663;SDS011;27353;50.906;7.248;2022-11-20T11:02:32;28.52;;;21.23;;
41663;SDS011;27353;50.906;7.248;2022-11-20T11:08:03;31.73;;;24.13;;
41663;SDS011;27353;50.906;7.248;2022-11-20T11:10:55;32.47;;;22.80;;
41663;SDS011;27353;50.906;7.248;2022-11-20T11:13:27;35.63;;;25.00;;
41663;SDS011;27353;50.906;7.248;2022-11-20T11:15:55;29.90;;;23.55;;
41663;SDS011;27353;50.906;7.248;2022-11-20T11:18:23;30.95;;;22.23;;
41663;SDS011;27353;50.906;7.248;2022-11-20T11:20:51;28.33;;;21.73;;
41663;SDS011;27353;50.906;7.248;2022-11-20T11:25:57;31.42;;;22.95;;
41663;SDS011;27353;50.906;7.248;2022-11-20T11:28:24;29.17;;;20.88;;
41663;SDS011;27353;50.906;7.248;2022-11-20T11:30:52;32.42;;;24.45;;
41663;SDS011;27353;50.906;7.248;2022-11-20T11:33:19;28.90;;;20.33;;
41663;SDS011;27353;50.906;7.248;2022-11-20T11:35:55;31.85;;;22.83;;
41663;SDS011;27353;50.906;7.248;2022-11-20T11:38:34;30.67;;;23.48;;
41663;SDS011;27353;50.906;7.248;2022-11-20T11:41:19;29.70;;;21.08;;
41663;SDS011;27353;50.906;7.248;2022-11-20T11:43:57;26.42;;;22.73;;
41663;SDS011;27353;50.906;7.248;2022-11-20T11:46:49;31.15;;;19.85;;
41663;SDS011;27353;50.906;7.248;2022-11-20T11:49:19;35.08;;;26.50;;
41663;SDS011;27353;50.906;7.248;2022-11-20T11:52:09;28.15;;;22.45;;
41663;SDS011;27353;50.906;7.248;2022-11-20T11:54:45;28.48;;;21.23;;
41663;SDS011;27353;50.906;7.248;2022-11-20T11:59:47;38.20;;;23.35;;
41663;SDS011;27353;50.906;7.248;2022-11-20T12:02:25;29.63;;;23.17;;
41663;SDS011;27353;50.906;7.248;2022-11-20T12:05:09;29.20;;;22.30;;
41663;SDS011;27353;50.906;7.248;2022-11-20T12:07:42;35.15;;;22.08;;
41663;SDS011;27353;50.906;7.248;2022-11-20T12:10:16;28.98;;;21.38;;
41663;SDS011;27353;50.906;7.248;2022-11-20T12:12:50;28.63;;;21.65;;
41663;SDS011;27353;50.906;7.248;2022-11-20T12:15:29;33.22;;;23.30;;
41663;SDS011;27353;50.906;7.248;2022-11-20T12:17:56;26.30;;;22.17;;
41663;SDS011;27353;50.906;7.248;2022-11-20T12:20:24;30.02;;;21.35;;
41663;SDS011;27353;50.906;7.248;2022-11-20T12:25:33;27.48;;;20.50;;
41663;SDS011;27353;50.906;7.248;2022-11-20T12:39:16;28.63;;;21.75;;
41663;SDS011;27353;50.906;7.248;2022-11-20T12:45:01;25.58;;;19.08;;
41663;SDS011;27353;50.906;7.248;2022-11-20T13:01:30;34.05;;;20.17;;
41663;SDS011;27353;50.906;7.248;2022-11-20T13:06:58;23.55;;;19.55;;
41663;SDS011;27353;50.906;7.248;2022-11-20T13:09:25;30.02;;;20.67;;
41663;SDS011;27353;50.906;7.248;2022-11-20T13:12:03;27.92;;;19.70;;
41663;SDS011;27353;50.906;7.248;2022-11-20T13:14:47;29.67;;;19.70;;
41663;SDS011;27353;50.906;7.248;2022-11-20T13:17:38;24.80;;;18.85;;
41663;SDS011;27353;50.906;7.248;2022-11-20T13:20:16;29.60;;;19.92;;
41663;SDS011;27353;50.906;7.248;2022-11-20T13:22:47;29.00;;;18.77;;
41663;SDS011;27353;50.906;7.248;2022-11-20T13:25:24;25.55;;;17.70;;
41663;SDS011;27353;50.906;7.248;2022-11-20T13:27:52;25.35;;;18.55;;
41663;SDS011;27353;50.906;7.248;2022-11-20T13:30:22;30.10;;;21.25;;
41663;SDS011;27353;50.906;7.248;2022-11-20T13:32:53;29.42;;;18.27;;
41663;SDS011;27353;50.906;7.248;2022-11-20T13:35:34;28.48;;;21.35;;
41663;SDS011;27353;50.906;7.248;2022-11-20T13:38:08;27.13;;;20.45;;
41663;SDS011;27353;50.906;7.248;2022-11-20T13:40:37;21.40;;;17.60;;
41663;SDS011;27353;50.906;7.248;2022-11-20T13:46:08;29.40;;;20.40;;
41663;SDS011;27353;50.906;7.248;2022-11-20T13:48:39;27.75;;;18.90;;
41663;SDS011;27353;50.906;7.248;2022-11-20T14:02:13;27.92;;;18.38;;
41663;SDS011;27353;50.906;7.248;2022-11-20T14:04:47;26.27;;;18.63;;
41663;SDS011;27353;50.906;7.248;2022-11-20T14:07:16;25.35;;;19.40;;
41663;SDS011;27353;50.906;7.248;2022-11-20T14:09:51;26.50;;;18.55;;
41663;SDS011;27353;50.906;7.248;2022-11-20T14:12:27;24.95;;;19.08;;
41663;SDS011;27353;50.906;7.248;2022-11-20T14:14:56;33.97;;;23.15;;
41663;SDS011;27353;50.906;7.248;2022-11-20T14:19:53;30.77;;;21.02;;
41663;SDS011;27353;50.906;7.248;2022-11-20T14:22:24;23.90;;;19.00;;
41663;SDS011;27353;50.906;7.248;2022-11-20T14:25:18;28.15;;;17.90;;
41663;SDS011;27353;50.906;7.248;2022-11-20T14:27:58;33.28;;;22.25;;
41663;SDS011;27353;50.906;7.248;2022-11-20T14:30:42;27.52;;;19.83;;
41663;SDS011;27353;50.906;7.248;2022-11-20T14:33:10;25.65;;;17.65;;
41663;SDS011;27353;50.906;7.248;2022-11-20T14:35:40;24.70;;;19.45;;
41663;SDS011;27353;50.906;7.248;2022-11-20T14:38:14;30.15;;;20.85;;
41663;SDS011;27353;50.906;7.248;2022-11-20T14:40:42;23.90;;;18.92;;
41663;SDS011;27353;50.906;7.248;2022-11-20T14:46:09;28.70;;;17.88;;
41663;SDS011;27353;50.906;7.248;2022-11-20T14:48:41;28.55;;;18.80;;
41663;SDS011;27353;50.906;7.248;2022-11-20T14:51:32;31.75;;;21.20;;
41663;SDS011;27353;50.906;7.248;2022-11-20T14:54:14;27.85;;;20.42;;
41663;SDS011;27353;50.906;7.248;2022-11-20T14:56:53;26.83;;;18.90;;
41663;SDS011;27353;50.906;7.248;2022-11-20T14:59:27;27.48;;;18.73;;
41663;SDS011;27353;50.906;7.248;2022-11-20T15:04:22;27.90;;;19.73;;
41663;SDS011;27353;50.906;7.248;2022-11-20T15:06:55;25.63;;;18.80;;
41663;SDS011;27353;50.906;7.248;2022-11-20T15:09:23;36.33;;;19.85;;
41663;SDS011;27353;50.906;7.248;2022-11-20T15:11:56;31.55;;;20.80;;
41663;SDS011;27353;50.906;7.248;2022-11-20T15:14:24;29.67;;;19.52;;
41663;SDS011;27353;50.906;7.248;2022-11-20T15:16:53;25.85;;;18.95;;
41663;SDS011;27353;50.906;7.248;2022-11-20T15:19:20;27.40;;;18.33;;
41663;SDS011;27353;50.906;7.248;2022-11-20T15:21:50;25.10;;;20.08;;
41663;SDS011;27353;50.906;7.248;2022-11-20T15:24:16;32.05;;;19.65;;
41663;SDS011;27353;50.906;7.248;2022-11-20T15:26:43;26.10;;;16.42;;
41663;SDS011;27353;50.906;7.248;2022-11-20T15:29:09;26.25;;;20.00;;
41663;SDS011;27353;50.906;7.248;2022-11-20T15:31:37;27.90;;;18.35;;
41663;SDS011;27353;50.906;7.248;2022-11-20T15:34:10;34.60;;;21.95;;
41663;SDS011;27353;50.906;7.248;2022-11-20T15:36:40;30.98;;;21.60;;
41663;SDS011;27353;50.906;7.248;2022-11-20T15:39:06;32.10;;;20.63;;
41663;SDS011;27353;50.906;7.248;2022-11-20T15:41:33;31.42;;;20.77;;
41663;SDS011;27353;50.906;7.248;2022-11-20T15:43:59;83.63;;;44.67;;
41663;SDS011;27353;50.906;7.248;2022-11-20T15:46:26;74.28;;;41.05;;
41663;SDS011;27353;50.906;7.248;2022-11-20T15:48:55;56.97;;;36.30;;
41663;SDS011;27353;50.906;7.248;2022-11-20T15:53:54;41.60;;;25.58;;
41663;SDS011;27353;50.906;7.248;2022-11-20T15:56:20;33.22;;;23.60;;
41663;SDS011;27353;50.906;7.248;2022-11-20T15:58:46;31.20;;;22.08;;
41663;SDS011;27353;50.906;7.248;2022-11-20T16:01:13;26.70;;;21.73;;
41663;SDS011;27353;50.906;7.248;2022-11-20T16:03:42;32.00;;;21.75;;
41663;SDS011;27353;50.906;7.248;2022-11-20T16:06:08;28.25;;;18.30;;
41663;SDS011;27353;50.906;7.248;2022-11-20T16:08:33;32.65;;;19.70;;
41663;SDS011;27353;50.906;7.248;2022-11-20T16:10:59;33.55;;;23.02;;
41663;SDS011;27353;50.906;7.248;2022-11-20T16:13:25;25.50;;;18.85;;